sensor_id;sensor_type;location;lat;lon;timestamp;temperature;humidity
4749;DHT22;2388;53.582;9.962;2022-11-27T00:01:00;7.70;99.90
4749;DHT22;2388;53.582;9.962;2022-11-27T00:03:25;7.70;99.90
4749;DHT22;2388;53.582;9.962;2022-11-27T00:05:55;7.70;99.90
4749;DHT22;2388;53.582;9.962;2022-11-27T00:08:23;7.60;99.90
4749;DHT22;2388;53.582;9.962;2022-11-27T00:10:48;7.70;99.90
4749;DHT22;2388;53.582;9.962;2022-11-27T00:13:14;7.60;99.90
4749;DHT22;2388;53.582;9.962;2022-11-27T00:15:40;7.50;99.90
4749;DHT22;2388;53.582;9.962;2022-11-27T00:18:05;8.10;99.90
4749;DHT22;2388;53.582;9.962;2022-11-27T00:20:31;7.50;99.90
4749;DHT22;2388;53.582;9.962;2022-11-27T00:22:56;7.40;99.90
4749;DHT22;2388;53.582;9.962;2022-11-27T00:25:22;7.50;99.90
4749;DHT22;2388;53.582;9.962;2022-11-27T00:27:47;7.40;99.90
4749;DHT22;2388;53.582;9.962;2022-11-27T00:30:13;7.40;99.90
4749;DHT22;2388;53.582;9.962;2022-11-27T00:32:39;7.40;99.90
4749;DHT22;2388;53.582;9.962;2022-11-27T00:35:05;7.40;99.90
4749;DHT22;2388;53.582;9.962;2022-11-27T00:37:31;7.40;99.90
4749;DHT22;2388;53.582;9.962;2022-11-27T00:39:56;7.40;99.90
4749;DHT22;2388;53.582;9.962;2022-11-27T00:42:22;7.40;99.90
4749;DHT22;2388;53.582;9.962;2022-11-27T00:44:47;7.40;99.90
4749;DHT22;2388;53.582;9.962;2022-11-27T00:47:13;7.40;99.90
4749;DHT22;2388;53.582;9.962;2022-11-27T00:49:38;7.30;99.90
4749;DHT22;2388;53.582;9.962;2022-11-27T00:52:04;7.30;99.90
4749;DHT22;2388;53.582;9.962;2022-11-27T00:54:29;7.30;99.90
4749;DHT22;2388;53.582;9.962;2022-11-27T00:56:55;7.30;99.90
4749;DHT22;2388;53.582;9.962;2022-11-27T00:59:20;7.30;99.90
4749;DHT22;2388;53.582;9.962;2022-11-27T01:01:46;7.30;99.90
4749;DHT22;2388;53.582;9.962;2022-11-27T01:04:14;7.30;99.90
4749;DHT22;2388;53.582;9.962;2022-11-27T01:06:40;7.30;99.90
4749;DHT22;2388;53.582;9.962;2022-11-27T01:09:06;7.30;99.90
4749;DHT22;2388;53.582;9.962;2022-11-27T01:11:34;7.30;99.90
4749;DHT22;2388;53.582;9.962;2022-11-27T01:14:03;7.20;99.90
4749;DHT22;2388;53.582;9.962;2022-11-27T01:16:30;7.30;99.90
4749;DHT22;2388;53.582;9.962;2022-11-27T01:18:57;7.20;99.90
4749;DHT22;2388;53.582;9.962;2022-11-27T01:21:24;7.20;99.90
4749;DHT22;2388;53.582;9.962;2022-11-27T01:23:50;7.20;99.90
4749;DHT22;2388;53.582;9.962;2022-11-27T01:26:17;7.20;99.90
4749;DHT22;2388;53.582;9.962;2022-11-27T01:28:43;7.20;99.90
4749;DHT22;2388;53.582;9.962;2022-11-27T01:31:13;7.20;99.90
4749;DHT22;2388;53.582;9.962;2022-11-27T01:33:39;7.20;99.90
4749;DHT22;2388;53.582;9.962;2022-11-27T01:36:06;7.10;99.90
4749;DHT22;2388;53.582;9.962;2022-11-27T01:38:32;7.10;99.90
4749;DHT22;2388;53.582;9.962;2022-11-27T01:41:05;7.10;99.90
4749;DHT22;2388;53.582;9.962;2022-11-27T01:43:46;7.10;99.90
4749;DHT22;2388;53.582;9.962;2022-11-27T01:46:29;7.10;99.90
4749;DHT22;2388;53.582;9.962;2022-11-27T01:49:21;7.10;99.90
4749;DHT22;2388;53.582;9.962;2022-11-27T01:52:00;7.10;99.90
4749;DHT22;2388;53.582;9.962;2022-11-27T01:54:30;7.10;99.90
4749;DHT22;2388;53.582;9.962;2022-11-27T01:57:00;7.00;99.90
4749;DHT22;2388;53.582;9.962;2022-11-27T01:59:28;7.00;99.90
4749;DHT22;2388;53.582;9.962;2022-11-27T02:01:53;7.00;99.90
4749;DHT22;2388;53.582;9.962;2022-11-27T02:04:19;7.00;99.90
4749;DHT22;2388;53.582;9.962;2022-11-27T02:06:45;7.00;99.90
4749;DHT22;2388;53.582;9.962;2022-11-27T02:09:11;7.00;99.90
4749;DHT22;2388;53.582;9.962;2022-11-27T02:11:48;7.00;99.90
4749;DHT22;2388;53.582;9.962;2022-11-27T02:17:10;6.90;99.90
4749;DHT22;2388;53.582;9.962;2022-11-27T02:31:17;6.90;99.90
4749;DHT22;2388;53.582;9.962;2022-11-27T02:37:32;6.80;99.90
4749;DHT22;2388;53.582;9.962;2022-11-27T02:42:38;6.80;99.90
4749;DHT22;2388;53.582;9.962;2022-11-27T02:45:11;6.70;99.90
4749;DHT22;2388;53.582;9.962;2022-11-27T02:47:39;6.80;99.90
4749;DHT22;2388;53.582;9.962;2022-11-27T02:50:09;6.70;99.90
4749;DHT22;2388;53.582;9.962;2022-11-27T02:52:35;6.70;99.90
4749;DHT22;2388;53.582;9.962;2022-11-27T02:55:04;6.70;99.90
4749;DHT22;2388;53.582;9.962;2022-11-27T02:57:33;6.70;99.90
4749;DHT22;2388;53.582;9.962;2022-11-27T03:00:00;6.70;99.90
4749;DHT22;2388;53.582;9.962;2022-11-27T03:02:29;6.60;99.90
4749;DHT22;2388;53.582;9.962;2022-11-27T03:04:59;6.60;99.90
4749;DHT22;2388;53.582;9.962;2022-11-27T03:07:32;6.60;99.90
4749;DHT22;2388;53.582;9.962;2022-11-27T03:10:09;6.60;99.90
4749;DHT22;2388;53.582;9.962;2022-11-27T03:12:36;6.60;99.90
4749;DHT22;2388;53.582;9.962;2022-11-27T03:15:03;6.50;99.90
4749;DHT22;2388;53.582;9.962;2022-11-27T03:17:46;6.50;99.90
4749;DHT22;2388;53.582;9.962;2022-11-27T03:20:25;6.50;99.90
4749;DHT22;2388;53.582;9.962;2022-11-27T03:22:53;6.40;99.90
4749;DHT22;2388;53.582;9.962;2022-11-27T03:25:19;6.40;99.90
4749;DHT22;2388;53.582;9.962;2022-11-27T03:28:02;6.50;99.90
4749;DHT22;2388;53.582;9.962;2022-11-27T03:30:29;6.50;99.90
4749;DHT22;2388;53.582;9.962;2022-11-27T03:32:54;6.40;99.90
4749;DHT22;2388;53.582;9.962;2022-11-27T03:35:23;6.40;99.90
4749;DHT22;2388;53.582;9.962;2022-11-27T03:37:49;6.40;99.90
4749;DHT22;2388;53.582;9.962;2022-11-27T03:40:16;6.30;99.90
4749;DHT22;2388;53.582;9.962;2022-11-27T03:42:57;6.30;99.90
4749;DHT22;2388;53.582;9.962;2022-11-27T03:45:39;6.30;99.90
4749;DHT22;2388;53.582;9.962;2022-11-27T03:51:24;6.60;99.90
4749;DHT22;2388;53.582;9.962;2022-11-27T03:56:45;6.20;99.90
4749;DHT22;2388;53.582;9.962;2022-11-27T03:59:21;6.20;99.90
4749;DHT22;2388;53.582;9.962;2022-11-27T04:01:47;6.10;99.90
4749;DHT22;2388;53.582;9.962;2022-11-27T04:04:12;6.10;99.90
4749;DHT22;2388;53.582;9.962;2022-11-27T04:06:38;6.10;99.90
4749;DHT22;2388;53.582;9.962;2022-11-27T04:09:03;6.00;99.90
4749;DHT22;2388;53.582;9.962;2022-11-27T04:11:29;6.00;99.90
4749;DHT22;2388;53.582;9.962;2022-11-27T04:13:54;5.90;99.90
4749;DHT22;2388;53.582;9.962;2022-11-27T04:16:20;5.90;99.90
4749;DHT22;2388;53.582;9.962;2022-11-27T04:18:45;5.90;99.90
4749;DHT22;2388;53.582;9.962;2022-11-27T04:21:11;5.90;99.90
4749;DHT22;2388;53.582;9.962;2022-11-27T04:23:37;5.90;99.90
4749;DHT22;2388;53.582;9.962;2022-11-27T04:26:03;5.90;99.90
4749;DHT22;2388;53.582;9.962;2022-11-27T04:28:29;5.80;99.90
4749;DHT22;2388;53.582;9.962;2022-11-27T04:30:55;5.80;99.90
4749;DHT22;2388;53.582;9.962;2022-11-27T04:33:21;5.80;99.90
4749;DHT22;2388;53.582;9.962;2022-11-27T04:35:47;5.80;99.90
4749;DHT22;2388;53.582;9.962;2022-11-27T04:38:13;5.70;99.90
4749;DHT22;2388;53.582;9.962;2022-11-27T04:40:39;5.70;99.90
4749;DHT22;2388;53.582;9.962;2022-11-27T04:43:04;5.60;99.90
4749;DHT22;2388;53.582;9.962;2022-11-27T04:45:29;5.60;99.90
4749;DHT22;2388;53.582;9.962;2022-11-27T04:47:55;5.50;99.90
4749;DHT22;2388;53.582;9.962;2022-11-27T04:50:20;5.50;99.90
4749;DHT22;2388;53.582;9.962;2022-11-27T04:52:46;5.50;99.90
4749;DHT22;2388;53.582;9.962;2022-11-27T04:55:11;5.50;99.90
4749;DHT22;2388;53.582;9.962;2022-11-27T04:57:37;5.50;99.90
4749;DHT22;2388;53.582;9.962;2022-11-27T05:00:04;5.50;99.90
4749;DHT22;2388;53.582;9.962;2022-11-27T05:02:29;5.50;99.90
4749;DHT22;2388;53.582;9.962;2022-11-27T05:04:55;5.40;99.90
4749;DHT22;2388;53.582;9.962;2022-11-27T05:07:20;5.40;99.90
4749;DHT22;2388;53.582;9.962;2022-11-27T05:09:46;5.40;99.90
4749;DHT22;2388;53.582;9.962;2022-11-27T05:12:11;5.40;99.90
4749;DHT22;2388;53.582;9.962;2022-11-27T05:14:37;5.30;99.90
4749;DHT22;2388;53.582;9.962;2022-11-27T05:17:02;5.30;99.90
4749;DHT22;2388;53.582;9.962;2022-11-27T05:19:29;5.20;99.90
4749;DHT22;2388;53.582;9.962;2022-11-27T05:21:55;5.20;99.90
4749;DHT22;2388;53.582;9.962;2022-11-27T05:24:23;5.10;99.90
4749;DHT22;2388;53.582;9.962;2022-11-27T05:26:49;5.10;99.90
4749;DHT22;2388;53.582;9.962;2022-11-27T05:29:15;5.10;99.90
4749;DHT22;2388;53.582;9.962;2022-11-27T05:31:41;5.10;99.90
4749;DHT22;2388;53.582;9.962;2022-11-27T05:34:07;5.00;99.90
4749;DHT22;2388;53.582;9.962;2022-11-27T05:36:33;4.90;99.90
4749;DHT22;2388;53.582;9.962;2022-11-27T05:38:59;4.90;99.90
4749;DHT22;2388;53.582;9.962;2022-11-27T05:41:25;4.90;99.90
4749;DHT22;2388;53.582;9.962;2022-11-27T05:43:51;4.90;99.90
4749;DHT22;2388;53.582;9.962;2022-11-27T05:46:18;4.90;99.90
4749;DHT22;2388;53.582;9.962;2022-11-27T05:48:44;4.90;99.90
4749;DHT22;2388;53.582;9.962;2022-11-27T05:51:09;4.90;99.90
4749;DHT22;2388;53.582;9.962;2022-11-27T05:53:35;4.80;99.90
4749;DHT22;2388;53.582;9.962;2022-11-27T05:56:02;4.90;99.90
4749;DHT22;2388;53.582;9.962;2022-11-27T05:58:28;4.80;99.90
4749;DHT22;2388;53.582;9.962;2022-11-27T06:00:54;4.80;99.90
4749;DHT22;2388;53.582;9.962;2022-11-27T06:03:19;4.80;99.90
4749;DHT22;2388;53.582;9.962;2022-11-27T06:05:44;4.80;99.90
4749;DHT22;2388;53.582;9.962;2022-11-27T06:08:10;4.80;99.90
4749;DHT22;2388;53.582;9.962;2022-11-27T06:10:37;4.90;99.90
4749;DHT22;2388;53.582;9.962;2022-11-27T06:13:03;4.90;99.90
4749;DHT22;2388;53.582;9.962;2022-11-27T06:15:28;5.00;99.90
4749;DHT22;2388;53.582;9.962;2022-11-27T06:17:54;5.00;99.90
4749;DHT22;2388;53.582;9.962;2022-11-27T06:20:19;5.00;99.90
4749;DHT22;2388;53.582;9.962;2022-11-27T06:22:45;5.00;99.90
4749;DHT22;2388;53.582;9.962;2022-11-27T06:25:11;4.90;99.90
4749;DHT22;2388;53.582;9.962;2022-11-27T06:27:36;4.90;99.90
4749;DHT22;2388;53.582;9.962;2022-11-27T06:30:03;4.90;99.90
4749;DHT22;2388;53.582;9.962;2022-11-27T06:32:29;4.90;99.90
4749;DHT22;2388;53.582;9.962;2022-11-27T06:34:55;4.90;99.90
4749;DHT22;2388;53.582;9.962;2022-11-27T06:37:20;4.90;99.90
4749;DHT22;2388;53.582;9.962;2022-11-27T06:39:47;4.90;99.90
4749;DHT22;2388;53.582;9.962;2022-11-27T06:42:13;4.80;99.90
4749;DHT22;2388;53.582;9.962;2022-11-27T06:44:39;4.80;99.90
4749;DHT22;2388;53.582;9.962;2022-11-27T06:47:04;4.80;99.90
4749;DHT22;2388;53.582;9.962;2022-11-27T06:49:30;4.80;99.90
4749;DHT22;2388;53.582;9.962;2022-11-27T06:51:55;4.70;99.90
4749;DHT22;2388;53.582;9.962;2022-11-27T06:54:21;4.70;99.90
4749;DHT22;2388;53.582;9.962;2022-11-27T06:56:48;4.70;99.90
4749;DHT22;2388;53.582;9.962;2022-11-27T06:59:14;4.70;99.90
4749;DHT22;2388;53.582;9.962;2022-11-27T07:01:40;4.80;99.90
4749;DHT22;2388;53.582;9.962;2022-11-27T07:04:11;4.70;99.90
4749;DHT22;2388;53.582;9.962;2022-11-27T07:06:37;4.70;99.90
4749;DHT22;2388;53.582;9.962;2022-11-27T07:09:03;4.70;99.90
4749;DHT22;2388;53.582;9.962;2022-11-27T07:11:29;4.70;99.90
4749;DHT22;2388;53.582;9.962;2022-11-27T07:13:58;4.70;99.90
4749;DHT22;2388;53.582;9.962;2022-11-27T07:16:25;4.70;99.90
4749;DHT22;2388;53.582;9.962;2022-11-27T07:18:53;4.70;99.90
4749;DHT22;2388;53.582;9.962;2022-11-27T07:21:20;4.60;99.90
4749;DHT22;2388;53.582;9.962;2022-11-27T07:23:46;4.60;99.90
4749;DHT22;2388;53.582;9.962;2022-11-27T07:28:38;4.60;99.90
4749;DHT22;2388;53.582;9.962;2022-11-27T07:31:04;4.60;99.90
4749;DHT22;2388;53.582;9.962;2022-11-27T07:33:30;4.60;99.90
4749;DHT22;2388;53.582;9.962;2022-11-27T07:36:01;4.50;99.90
4749;DHT22;2388;53.582;9.962;2022-11-27T07:38:27;4.50;99.90
4749;DHT22;2388;53.582;9.962;2022-11-27T07:40:52;4.50;99.90
4749;DHT22;2388;53.582;9.962;2022-11-27T07:43:18;4.50;99.90
4749;DHT22;2388;53.582;9.962;2022-11-27T07:45:43;4.50;99.90
4749;DHT22;2388;53.582;9.962;2022-11-27T07:48:09;4.60;99.90
4749;DHT22;2388;53.582;9.962;2022-11-27T07:50:34;4.60;99.90
4749;DHT22;2388;53.582;9.962;2022-11-27T07:53:00;5.00;99.90
4749;DHT22;2388;53.582;9.962;2022-11-27T07:55:25;5.20;99.90
4749;DHT22;2388;53.582;9.962;2022-11-27T07:57:51;5.40;99.90
4749;DHT22;2388;53.582;9.962;2022-11-27T08:00:16;5.50;99.90
4749;DHT22;2388;53.582;9.962;2022-11-27T08:02:42;5.50;99.90
4749;DHT22;2388;53.582;9.962;2022-11-27T08:05:08;5.60;99.90
4749;DHT22;2388;53.582;9.962;2022-11-27T08:07:33;5.80;99.90
4749;DHT22;2388;53.582;9.962;2022-11-27T08:09:59;5.90;99.90
4749;DHT22;2388;53.582;9.962;2022-11-27T08:12:25;5.80;99.90
4749;DHT22;2388;53.582;9.962;2022-11-27T08:14:51;5.60;99.90
4749;DHT22;2388;53.582;9.962;2022-11-27T08:17:16;5.40;99.90
4749;DHT22;2388;53.582;9.962;2022-11-27T08:19:42;5.30;99.90
4749;DHT22;2388;53.582;9.962;2022-11-27T08:22:15;5.20;99.90
4749;DHT22;2388;53.582;9.962;2022-11-27T08:24:41;5.10;99.90
4749;DHT22;2388;53.582;9.962;2022-11-27T08:27:07;5.10;99.90
4749;DHT22;2388;53.582;9.962;2022-11-27T08:29:33;5.00;99.90
4749;DHT22;2388;53.582;9.962;2022-11-27T08:31:59;5.00;99.90
4749;DHT22;2388;53.582;9.962;2022-11-27T08:34:24;5.10;99.90
4749;DHT22;2388;53.582;9.962;2022-11-27T08:36:51;5.10;99.90
4749;DHT22;2388;53.582;9.962;2022-11-27T08:39:16;5.10;99.90
4749;DHT22;2388;53.582;9.962;2022-11-27T08:41:42;5.10;99.90
4749;DHT22;2388;53.582;9.962;2022-11-27T08:44:07;5.20;99.90
4749;DHT22;2388;53.582;9.962;2022-11-27T08:46:33;5.10;99.90
4749;DHT22;2388;53.582;9.962;2022-11-27T08:48:58;5.00;99.90
4749;DHT22;2388;53.582;9.962;2022-11-27T08:51:25;5.00;99.90
4749;DHT22;2388;53.582;9.962;2022-11-27T08:53:51;5.10;99.90
4749;DHT22;2388;53.582;9.962;2022-11-27T08:56:20;5.00;99.90
4749;DHT22;2388;53.582;9.962;2022-11-27T08:58:46;5.00;99.90
4749;DHT22;2388;53.582;9.962;2022-11-27T09:01:22;5.00;99.90
4749;DHT22;2388;53.582;9.962;2022-11-27T09:03:48;5.00;99.90
4749;DHT22;2388;53.582;9.962;2022-11-27T09:06:16;5.00;99.90
4749;DHT22;2388;53.582;9.962;2022-11-27T09:08:42;5.00;99.90
4749;DHT22;2388;53.582;9.962;2022-11-27T09:11:09;5.00;99.90
4749;DHT22;2388;53.582;9.962;2022-11-27T09:13:36;5.00;99.90
4749;DHT22;2388;53.582;9.962;2022-11-27T09:16:03;5.00;99.90
4749;DHT22;2388;53.582;9.962;2022-11-27T09:18:29;5.00;99.90
4749;DHT22;2388;53.582;9.962;2022-11-27T09:20:59;5.00;99.90
4749;DHT22;2388;53.582;9.962;2022-11-27T09:23:24;5.00;99.90
4749;DHT22;2388;53.582;9.962;2022-11-27T09:25:50;5.00;99.90
4749;DHT22;2388;53.582;9.962;2022-11-27T09:28:15;5.00;99.90
4749;DHT22;2388;53.582;9.962;2022-11-27T09:30:41;5.00;99.90
4749;DHT22;2388;53.582;9.962;2022-11-27T09:33:06;5.00;99.90
4749;DHT22;2388;53.582;9.962;2022-11-27T09:35:32;5.00;99.90
4749;DHT22;2388;53.582;9.962;2022-11-27T09:37:57;5.00;99.90
4749;DHT22;2388;53.582;9.962;2022-11-27T09:40:23;5.00;99.90
4749;DHT22;2388;53.582;9.962;2022-11-27T09:42:56;5.00;99.90
4749;DHT22;2388;53.582;9.962;2022-11-27T09:45:23;5.00;99.90
4749;DHT22;2388;53.582;9.962;2022-11-27T09:47:56;5.10;99.90
4749;DHT22;2388;53.582;9.962;2022-11-27T09:50:29;5.10;99.90
4749;DHT22;2388;53.582;9.962;2022-11-27T09:53:05;5.10;99.90
4749;DHT22;2388;53.582;9.962;2022-11-27T09:55:41;5.20;99.90
4749;DHT22;2388;53.582;9.962;2022-11-27T10:00:59;5.70;99.90
4749;DHT22;2388;53.582;9.962;2022-11-27T10:03:25;5.90;99.90
4749;DHT22;2388;53.582;9.962;2022-11-27T10:12:13;6.20;99.90
4749;DHT22;2388;53.582;9.962;2022-11-27T10:20:04;6.60;99.90
4749;DHT22;2388;53.582;9.962;2022-11-27T10:22:44;6.70;99.90
4749;DHT22;2388;53.582;9.962;2022-11-27T10:25:23;6.70;99.90
4749;DHT22;2388;53.582;9.962;2022-11-27T10:28:02;6.60;99.90
4749;DHT22;2388;53.582;9.962;2022-11-27T10:30:31;6.70;99.90
4749;DHT22;2388;53.582;9.962;2022-11-27T10:32:58;6.70;99.90
4749;DHT22;2388;53.582;9.962;2022-11-27T10:35:27;6.80;99.90
4749;DHT22;2388;53.582;9.962;2022-11-27T10:37:54;6.80;99.90
4749;DHT22;2388;53.582;9.962;2022-11-27T10:40:28;6.80;99.90
4749;DHT22;2388;53.582;9.962;2022-11-27T10:43:19;6.80;99.90
4749;DHT22;2388;53.582;9.962;2022-11-27T10:45:58;6.70;99.90
4749;DHT22;2388;53.582;9.962;2022-11-27T10:48:25;6.60;99.90
4749;DHT22;2388;53.582;9.962;2022-11-27T10:50:52;6.40;99.90
4749;DHT22;2388;53.582;9.962;2022-11-27T10:53:28;6.30;99.90
4749;DHT22;2388;53.582;9.962;2022-11-27T11:01:20;6.30;99.90
4749;DHT22;2388;53.582;9.962;2022-11-27T11:03:46;6.20;99.90
4749;DHT22;2388;53.582;9.962;2022-11-27T11:06:19;6.20;99.90
4749;DHT22;2388;53.582;9.962;2022-11-27T11:08:45;6.20;99.90
4749;DHT22;2388;53.582;9.962;2022-11-27T11:11:11;6.10;99.90
4749;DHT22;2388;53.582;9.962;2022-11-27T11:18:42;6.10;99.90
4749;DHT22;2388;53.582;9.962;2022-11-27T11:21:28;6.10;99.90
4749;DHT22;2388;53.582;9.962;2022-11-27T11:23:58;6.10;99.90
4749;DHT22;2388;53.582;9.962;2022-11-27T11:26:27;6.70;99.90
4749;DHT22;2388;53.582;9.962;2022-11-27T11:28:56;6.20;99.90
4749;DHT22;2388;53.582;9.962;2022-11-27T11:31:32;6.20;99.90
4749;DHT22;2388;53.582;9.962;2022-11-27T11:34:02;6.20;99.90
4749;DHT22;2388;53.582;9.962;2022-11-27T11:36:28;6.30;99.90
4749;DHT22;2388;53.582;9.962;2022-11-27T11:38:54;6.30;99.90
4749;DHT22;2388;53.582;9.962;2022-11-27T11:41:20;6.30;99.90
4749;DHT22;2388;53.582;9.962;2022-11-27T11:43:57;6.30;99.90
4749;DHT22;2388;53.582;9.962;2022-11-27T11:46:25;6.40;99.90
4749;DHT22;2388;53.582;9.962;2022-11-27T11:49:16;6.40;99.90
4749;DHT22;2388;53.582;9.962;2022-11-27T11:51:52;6.40;99.90
4749;DHT22;2388;53.582;9.962;2022-11-27T11:54:55;6.40;99.90
4749;DHT22;2388;53.582;9.962;2022-11-27T12:00:13;6.40;99.90
4749;DHT22;2388;53.582;9.962;2022-11-27T12:03:17;6.40;99.90
4749;DHT22;2388;53.582;9.962;2022-11-27T12:08:50;6.40;99.90
4749;DHT22;2388;53.582;9.962;2022-11-27T12:11:48;6.40;99.90
4749;DHT22;2388;53.582;9.962;2022-11-27T12:17:20;6.50;99.90
4749;DHT22;2388;53.582;9.962;2022-11-27T12:20:01;6.50;99.90
4749;DHT22;2388;53.582;9.962;2022-11-27T12:22:57;6.50;99.90
4749;DHT22;2388;53.582;9.962;2022-11-27T12:25:46;6.50;99.90
4749;DHT22;2388;53.582;9.962;2022-11-27T12:28:28;6.50;99.90
4749;DHT22;2388;53.582;9.962;2022-11-27T12:33:38;6.60;99.90
4749;DHT22;2388;53.582;9.962;2022-11-27T12:38:59;6.60;99.90
4749;DHT22;2388;53.582;9.962;2022-11-27T12:43:56;6.60;99.90
4749;DHT22;2388;53.582;9.962;2022-11-27T12:46:51;6.70;99.90
4749;DHT22;2388;53.582;9.962;2022-11-27T12:49:27;6.60;99.90
4749;DHT22;2388;53.582;9.962;2022-11-27T12:54:51;6.70;99.90
4749;DHT22;2388;53.582;9.962;2022-11-27T12:57:29;6.90;99.90
4749;DHT22;2388;53.582;9.962;2022-11-27T13:00:00;6.90;99.90
4749;DHT22;2388;53.582;9.962;2022-11-27T13:05:26;6.80;99.90
4749;DHT22;2388;53.582;9.962;2022-11-27T13:10:49;6.80;99.90
4749;DHT22;2388;53.582;9.962;2022-11-27T13:13:32;6.80;99.90
4749;DHT22;2388;53.582;9.962;2022-11-27T13:21:24;7.10;99.90
4749;DHT22;2388;53.582;9.962;2022-11-27T13:23:51;6.80;99.90
4749;DHT22;2388;53.582;9.962;2022-11-27T13:26:25;6.80;99.90
4749;DHT22;2388;53.582;9.962;2022-11-27T13:28:59;6.80;99.90
4749;DHT22;2388;53.582;9.962;2022-11-27T13:31:35;6.80;99.90
4749;DHT22;2388;53.582;9.962;2022-11-27T13:34:05;6.80;99.90
4749;DHT22;2388;53.582;9.962;2022-11-27T13:36:42;6.80;99.90
4749;DHT22;2388;53.582;9.962;2022-11-27T13:39:23;6.80;99.90
4749;DHT22;2388;53.582;9.962;2022-11-27T13:42:05;6.80;99.90
4749;DHT22;2388;53.582;9.962;2022-11-27T13:44:35;6.80;99.90
4749;DHT22;2388;53.582;9.962;2022-11-27T13:47:08;6.80;99.90
4749;DHT22;2388;53.582;9.962;2022-11-27T13:49:35;6.80;99.90
4749;DHT22;2388;53.582;9.962;2022-11-27T13:52:22;6.80;99.90
4749;DHT22;2388;53.582;9.962;2022-11-27T13:54:57;6.80;99.90
4749;DHT22;2388;53.582;9.962;2022-11-27T13:57:24;6.80;99.90
4749;DHT22;2388;53.582;9.962;2022-11-27T13:59:56;6.80;99.90
4749;DHT22;2388;53.582;9.962;2022-11-27T14:02:22;6.80;99.90
4749;DHT22;2388;53.582;9.962;2022-11-27T14:04:49;6.80;99.90
4749;DHT22;2388;53.582;9.962;2022-11-27T14:07:16;6.80;99.90
4749;DHT22;2388;53.582;9.962;2022-11-27T14:09:48;7.20;99.90
4749;DHT22;2388;53.582;9.962;2022-11-27T14:12:25;6.80;99.90
4749;DHT22;2388;53.582;9.962;2022-11-27T14:15:21;6.80;99.90
4749;DHT22;2388;53.582;9.962;2022-11-27T14:17:50;6.80;99.90
4749;DHT22;2388;53.582;9.962;2022-11-27T14:22:54;6.80;99.90
4749;DHT22;2388;53.582;9.962;2022-11-27T14:25:32;6.80;99.90
4749;DHT22;2388;53.582;9.962;2022-11-27T14:30:55;6.80;99.90
4749;DHT22;2388;53.582;9.962;2022-11-27T14:33:26;6.80;99.90
4749;DHT22;2388;53.582;9.962;2022-11-27T14:35:59;6.80;99.90
4749;DHT22;2388;53.582;9.962;2022-11-27T14:38:26;6.80;99.90
4749;DHT22;2388;53.582;9.962;2022-11-27T14:40:53;6.80;99.90
4749;DHT22;2388;53.582;9.962;2022-11-27T14:43:23;6.80;99.90
4749;DHT22;2388;53.582;9.962;2022-11-27T14:45:56;6.90;99.90
4749;DHT22;2388;53.582;9.962;2022-11-27T14:48:30;6.80;99.90
4749;DHT22;2388;53.582;9.962;2022-11-27T14:50:58;6.80;99.90
4749;DHT22;2388;53.582;9.962;2022-11-27T14:53:26;6.80;99.90
4749;DHT22;2388;53.582;9.962;2022-11-27T14:55:55;7.00;99.90
4749;DHT22;2388;53.582;9.962;2022-11-27T14:58:26;7.10;99.90
4749;DHT22;2388;53.582;9.962;2022-11-27T15:01:02;7.40;99.90
4749;DHT22;2388;53.582;9.962;2022-11-27T15:03:28;7.00;99.90
4749;DHT22;2388;53.582;9.962;2022-11-27T15:08:25;6.90;99.90
4749;DHT22;2388;53.582;9.962;2022-11-27T15:10:53;6.90;99.90
4749;DHT22;2388;53.582;9.962;2022-11-27T15:13:24;6.90;99.90
4749;DHT22;2388;53.582;9.962;2022-11-27T15:15:57;6.80;99.90
4749;DHT22;2388;53.582;9.962;2022-11-27T15:18:24;6.80;99.90
4749;DHT22;2388;53.582;9.962;2022-11-27T15:20:51;6.80;99.90
4749;DHT22;2388;53.582;9.962;2022-11-27T15:23:28;6.80;99.90
4749;DHT22;2388;53.582;9.962;2022-11-27T15:30:53;6.80;99.90
4749;DHT22;2388;53.582;9.962;2022-11-27T15:33:30;6.80;99.90
4749;DHT22;2388;53.582;9.962;2022-11-27T15:36:19;6.80;99.90
4749;DHT22;2388;53.582;9.962;2022-11-27T15:38:45;6.80;99.90
4749;DHT22;2388;53.582;9.962;2022-11-27T15:41:25;6.80;99.90
4749;DHT22;2388;53.582;9.962;2022-11-27T15:43:51;7.00;99.90
4749;DHT22;2388;53.582;9.962;2022-11-27T15:46:40;7.00;99.90
4749;DHT22;2388;53.582;9.962;2022-11-27T15:49:12;6.90;99.90
4749;DHT22;2388;53.582;9.962;2022-11-27T15:51:38;6.90;99.90
4749;DHT22;2388;53.582;9.962;2022-11-27T15:54:04;6.90;99.90
4749;DHT22;2388;53.582;9.962;2022-11-27T15:56:29;6.90;99.90
4749;DHT22;2388;53.582;9.962;2022-11-27T15:58:55;6.80;99.90
4749;DHT22;2388;53.582;9.962;2022-11-27T16:01:20;6.80;99.90
4749;DHT22;2388;53.582;9.962;2022-11-27T16:03:46;6.80;99.90
4749;DHT22;2388;53.582;9.962;2022-11-27T16:06:11;6.70;99.90
4749;DHT22;2388;53.582;9.962;2022-11-27T16:08:37;6.70;99.90
4749;DHT22;2388;53.582;9.962;2022-11-27T16:11:05;6.80;99.90
4749;DHT22;2388;53.582;9.962;2022-11-27T16:13:31;6.70;99.90
4749;DHT22;2388;53.582;9.962;2022-11-27T16:16:01;6.70;99.90
4749;DHT22;2388;53.582;9.962;2022-11-27T16:18:27;6.70;99.90
4749;DHT22;2388;53.582;9.962;2022-11-27T16:20:53;6.70;99.90
4749;DHT22;2388;53.582;9.962;2022-11-27T16:23:18;6.70;99.90
4749;DHT22;2388;53.582;9.962;2022-11-27T16:25:44;6.70;99.90
4749;DHT22;2388;53.582;9.962;2022-11-27T16:28:09;6.70;99.90
4749;DHT22;2388;53.582;9.962;2022-11-27T16:30:35;6.60;99.90
4749;DHT22;2388;53.582;9.962;2022-11-27T16:33:00;6.60;99.90
4749;DHT22;2388;53.582;9.962;2022-11-27T16:35:27;6.60;99.90
4749;DHT22;2388;53.582;9.962;2022-11-27T16:37:52;6.60;99.90
4749;DHT22;2388;53.582;9.962;2022-11-27T16:40:18;6.50;99.90
4749;DHT22;2388;53.582;9.962;2022-11-27T16:42:43;6.50;99.90
4749;DHT22;2388;53.582;9.962;2022-11-27T16:45:09;6.50;99.90
4749;DHT22;2388;53.582;9.962;2022-11-27T16:47:34;6.40;99.90
4749;DHT22;2388;53.582;9.962;2022-11-27T16:50:00;6.50;99.90
4749;DHT22;2388;53.582;9.962;2022-11-27T16:52:26;6.50;99.90
4749;DHT22;2388;53.582;9.962;2022-11-27T16:54:53;6.40;99.90
4749;DHT22;2388;53.582;9.962;2022-11-27T16:57:19;6.50;99.90
4749;DHT22;2388;53.582;9.962;2022-11-27T16:59:44;6.50;99.90
4749;DHT22;2388;53.582;9.962;2022-11-27T17:02:10;6.50;99.90
4749;DHT22;2388;53.582;9.962;2022-11-27T17:04:37;6.40;99.90
4749;DHT22;2388;53.582;9.962;2022-11-27T17:07:03;6.50;99.90
4749;DHT22;2388;53.582;9.962;2022-11-27T17:09:30;6.40;99.90
4749;DHT22;2388;53.582;9.962;2022-11-27T17:11:55;6.40;99.90
4749;DHT22;2388;53.582;9.962;2022-11-27T17:14:21;6.40;99.90
4749;DHT22;2388;53.582;9.962;2022-11-27T17:16:47;6.30;99.90
4749;DHT22;2388;53.582;9.962;2022-11-27T17:19:13;6.30;99.90
4749;DHT22;2388;53.582;9.962;2022-11-27T17:21:39;6.30;99.90
4749;DHT22;2388;53.582;9.962;2022-11-27T17:24:08;6.30;99.90
4749;DHT22;2388;53.582;9.962;2022-11-27T17:26:35;6.30;99.90
4749;DHT22;2388;53.582;9.962;2022-11-27T17:29:07;6.30;99.90
4749;DHT22;2388;53.582;9.962;2022-11-27T17:31:33;6.20;99.90
4749;DHT22;2388;53.582;9.962;2022-11-27T17:34:01;6.30;99.90
4749;DHT22;2388;53.582;9.962;2022-11-27T17:36:28;6.20;99.90
4749;DHT22;2388;53.582;9.962;2022-11-27T17:38:54;6.20;99.90
4749;DHT22;2388;53.582;9.962;2022-11-27T17:41:20;6.20;99.90
4749;DHT22;2388;53.582;9.962;2022-11-27T17:43:46;6.20;99.90
4749;DHT22;2388;53.582;9.962;2022-11-27T17:46:17;6.20;99.90
4749;DHT22;2388;53.582;9.962;2022-11-27T17:48:43;6.20;99.90
4749;DHT22;2388;53.582;9.962;2022-11-27T17:51:08;6.10;99.90
4749;DHT22;2388;53.582;9.962;2022-11-27T17:53:35;6.10;99.90
4749;DHT22;2388;53.582;9.962;2022-11-27T17:56:05;6.10;99.90
4749;DHT22;2388;53.582;9.962;2022-11-27T17:58:31;6.10;99.90
4749;DHT22;2388;53.582;9.962;2022-11-27T18:00:57;6.10;99.90
4749;DHT22;2388;53.582;9.962;2022-11-27T18:03:22;6.10;99.90
4749;DHT22;2388;53.582;9.962;2022-11-27T18:05:48;6.00;99.90